sensor_id;sensor_type;location;lat;lon;timestamp;pressure;altitude;pressure_sealevel;temperature;humidity
25560;BME280;13450;49.374;8.584;2023-12-14T00:01:52;99483.13;;;6.40;100.00
25560;BME280;13450;49.374;8.584;2023-12-14T00:04:17;99487.91;;;6.45;100.00
25560;BME280;13450;49.374;8.584;2023-12-14T00:06:45;99490.41;;;6.47;100.00
25560;BME280;13450;49.374;8.584;2023-12-14T00:09:11;99494.69;;;6.48;100.00
25560;BME280;13450;49.374;8.584;2023-12-14T00:11:42;99501.72;;;6.40;100.00
25560;BME280;13450;49.374;8.584;2023-12-14T00:14:07;99497.59;;;6.38;100.00
25560;BME280;13450;49.374;8.584;2023-12-14T00:16:32;99500.91;;;6.40;100.00
25560;BME280;13450;49.374;8.584;2023-12-14T00:18:58;99511.91;;;6.37;100.00
25560;BME280;13450;49.374;8.584;2023-12-14T00:21:25;99514.72;;;6.35;100.00
25560;BME280;13450;49.374;8.584;2023-12-14T00:23:51;99510.44;;;6.34;100.00
25560;BME280;13450;49.374;8.584;2023-12-14T00:26:16;99515.13;;;6.32;100.00
25560;BME280;13450;49.374;8.584;2023-12-14T00:28:42;99511.78;;;6.30;100.00
25560;BME280;13450;49.374;8.584;2023-12-14T00:31:10;99513.34;;;6.24;100.00
25560;BME280;13450;49.374;8.584;2023-12-14T00:33:35;99523.16;;;6.24;100.00
25560;BME280;13450;49.374;8.584;2023-12-14T00:36:01;99516.81;;;6.25;100.00
25560;BME280;13450;49.374;8.584;2023-12-14T00:38:26;99526.81;;;6.23;100.00
25560;BME280;13450;49.374;8.584;2023-12-14T00:40:51;99529.75;;;6.28;100.00
25560;BME280;13450;49.374;8.584;2023-12-14T00:43:17;99534.53;;;6.33;100.00
25560;BME280;13450;49.374;8.584;2023-12-14T00:45:42;99536.38;;;6.32;100.00
25560;BME280;13450;49.374;8.584;2023-12-14T00:48:07;99538.72;;;6.27;100.00
25560;BME280;13450;49.374;8.584;2023-12-14T00:50:33;99536.59;;;6.22;100.00
25560;BME280;13450;49.374;8.584;2023-12-14T00:53:02;99543.09;;;6.20;100.00
25560;BME280;13450;49.374;8.584;2023-12-14T00:55:28;99543.44;;;6.17;100.00
25560;BME280;13450;49.374;8.584;2023-12-14T00:57:53;99558.38;;;6.18;100.00
25560;BME280;13450;49.374;8.584;2023-12-14T01:00:18;99557.41;;;6.19;100.00
25560;BME280;13450;49.374;8.584;2023-12-14T01:02:43;99564.72;;;6.17;100.00
25560;BME280;13450;49.374;8.584;2023-12-14T01:05:09;99578.66;;;6.19;100.00
25560;BME280;13450;49.374;8.584;2023-12-14T01:07:34;99575.00;;;6.20;100.00
25560;BME280;13450;49.374;8.584;2023-12-14T01:09:59;99591.41;;;6.23;100.00
25560;BME280;13450;49.374;8.584;2023-12-14T01:12:25;99585.28;;;6.23;100.00
25560;BME280;13450;49.374;8.584;2023-12-14T01:14:52;99593.25;;;6.23;100.00
25560;BME280;13450;49.374;8.584;2023-12-14T01:17:17;99595.22;;;6.21;100.00
25560;BME280;13450;49.374;8.584;2023-12-14T01:19:43;99607.69;;;6.20;100.00
25560;BME280;13450;49.374;8.584;2023-12-14T01:22:08;99604.56;;;6.17;100.00
25560;BME280;13450;49.374;8.584;2023-12-14T01:24:34;99607.56;;;6.13;100.00
25560;BME280;13450;49.374;8.584;2023-12-14T01:26:59;99609.75;;;6.10;100.00
25560;BME280;13450;49.374;8.584;2023-12-14T01:29:24;99621.22;;;6.10;100.00
25560;BME280;13450;49.374;8.584;2023-12-14T01:31:49;99624.69;;;6.11;100.00
25560;BME280;13450;49.374;8.584;2023-12-14T01:34:16;99629.34;;;6.09;100.00
25560;BME280;13450;49.374;8.584;2023-12-14T01:36:41;99625.06;;;6.08;100.00
25560;BME280;13450;49.374;8.584;2023-12-14T01:39:07;99633.16;;;6.14;100.00
25560;BME280;13450;49.374;8.584;2023-12-14T01:41:32;99634.38;;;6.27;100.00
25560;BME280;13450;49.374;8.584;2023-12-14T01:43:58;99640.75;;;6.18;100.00
25560;BME280;13450;49.374;8.584;2023-12-14T01:46:23;99640.94;;;6.16;100.00
25560;BME280;13450;49.374;8.584;2023-12-14T01:48:48;99639.44;;;6.13;100.00
25560;BME280;13450;49.374;8.584;2023-12-14T01:51:14;99644.41;;;6.17;100.00
25560;BME280;13450;49.374;8.584;2023-12-14T01:53:41;99644.41;;;6.17;100.00
25560;BME280;13450;49.374;8.584;2023-12-14T01:56:07;99653.22;;;6.17;100.00
25560;BME280;13450;49.374;8.584;2023-12-14T01:58:32;99661.66;;;6.21;100.00
25560;BME280;13450;49.374;8.584;2023-12-14T02:01:23;99665.06;;;6.06;100.00
25560;BME280;13450;49.374;8.584;2023-12-14T02:03:52;99669.72;;;6.04;100.00
25560;BME280;13450;49.374;8.584;2023-12-14T02:06:18;99678.34;;;6.06;100.00
25560;BME280;13450;49.374;8.584;2023-12-14T02:08:45;99678.81;;;6.10;100.00
25560;BME280;13450;49.374;8.584;2023-12-14T02:11:11;99685.97;;;6.09;100.00
25560;BME280;13450;49.374;8.584;2023-12-14T02:13:39;99684.28;;;6.08;100.00
25560;BME280;13450;49.374;8.584;2023-12-14T02:16:05;99687.78;;;6.09;100.00
25560;BME280;13450;49.374;8.584;2023-12-14T02:18:30;99691.63;;;6.06;100.00
25560;BME280;13450;49.374;8.584;2023-12-14T02:20:55;99683.50;;;6.08;100.00
25560;BME280;13450;49.374;8.584;2023-12-14T02:23:21;99690.63;;;6.07;100.00
25560;BME280;13450;49.374;8.584;2023-12-14T02:25:46;99690.63;;;6.07;100.00
25560;BME280;13450;49.374;8.584;2023-12-14T02:28:14;99688.81;;;6.08;100.00
25560;BME280;13450;49.374;8.584;2023-12-14T02:30:41;99699.44;;;6.08;100.00
25560;BME280;13450;49.374;8.584;2023-12-14T02:33:07;99702.25;;;6.06;100.00
25560;BME280;13450;49.374;8.584;2023-12-14T02:35:32;99703.06;;;6.07;100.00
25560;BME280;13450;49.374;8.584;2023-12-14T02:37:57;99709.22;;;6.07;100.00
25560;BME280;13450;49.374;8.584;2023-12-14T02:40:25;99717.00;;;6.09;100.00
25560;BME280;13450;49.374;8.584;2023-12-14T02:42:50;99723.78;;;6.20;100.00
25560;BME280;13450;49.374;8.584;2023-12-14T02:45:15;99714.09;;;6.27;100.00
25560;BME280;13450;49.374;8.584;2023-12-14T02:47:41;99718.13;;;6.23;100.00
25560;BME280;13450;49.374;8.584;2023-12-14T02:50:06;99724.41;;;6.22;100.00
25560;BME280;13450;49.374;8.584;2023-12-14T02:52:32;99725.41;;;6.21;100.00
25560;BME280;13450;49.374;8.584;2023-12-14T02:54:57;99727.25;;;6.20;100.00
25560;BME280;13450;49.374;8.584;2023-12-14T02:57:22;99741.38;;;6.21;100.00
25560;BME280;13450;49.374;8.584;2023-12-14T02:59:48;99740.00;;;6.25;100.00
25560;BME280;13450;49.374;8.584;2023-12-14T03:02:13;99750.19;;;6.13;100.00
25560;BME280;13450;49.374;8.584;2023-12-14T03:04:39;99756.38;;;6.05;100.00
25560;BME280;13450;49.374;8.584;2023-12-14T03:07:07;99761.03;;;6.03;100.00
25560;BME280;13450;49.374;8.584;2023-12-14T03:09:33;99756.03;;;6.00;100.00
25560;BME280;13450;49.374;8.584;2023-12-14T03:12:02;99758.81;;;6.15;100.00
25560;BME280;13450;49.374;8.584;2023-12-14T03:14:31;99762.94;;;6.18;100.00
25560;BME280;13450;49.374;8.584;2023-12-14T03:16:57;99770.75;;;6.19;100.00
25560;BME280;13450;49.374;8.584;2023-12-14T03:19:22;99775.91;;;6.21;100.00
25560;BME280;13450;49.374;8.584;2023-12-14T03:21:47;99769.94;;;6.19;100.00
25560;BME280;13450;49.374;8.584;2023-12-14T03:24:13;99773.59;;;6.18;100.00
25560;BME280;13450;49.374;8.584;2023-12-14T03:26:38;99778.09;;;6.17;100.00
25560;BME280;13450;49.374;8.584;2023-12-14T03:29:03;99787.88;;;6.17;100.00
25560;BME280;13450;49.374;8.584;2023-12-14T03:31:31;99789.19;;;6.21;100.00
25560;BME280;13450;49.374;8.584;2023-12-14T03:33:56;99792.53;;;6.23;100.00
25560;BME280;13450;49.374;8.584;2023-12-14T03:36:22;99797.47;;;6.26;100.00
25560;BME280;13450;49.374;8.584;2023-12-14T03:38:51;99803.78;;;6.25;100.00
25560;BME280;13450;49.374;8.584;2023-12-14T03:41:18;99807.28;;;6.25;100.00
25560;BME280;13450;49.374;8.584;2023-12-14T03:43:46;99805.59;;;6.24;100.00
25560;BME280;13450;49.374;8.584;2023-12-14T03:46:11;99808.09;;;6.26;100.00
25560;BME280;13450;49.374;8.584;2023-12-14T03:48:37;99811.44;;;6.28;100.00
25560;BME280;13450;49.374;8.584;2023-12-14T03:51:05;99822.53;;;6.32;100.00
25560;BME280;13450;49.374;8.584;2023-12-14T03:53:31;99823.00;;;6.35;100.00
25560;BME280;13450;49.374;8.584;2023-12-14T03:55:59;99830.63;;;6.38;100.00
25560;BME280;13450;49.374;8.584;2023-12-14T03:58:25;99833.78;;;6.42;100.00
25560;BME280;13450;49.374;8.584;2023-12-14T04:00:50;99836.25;;;6.44;100.00
25560;BME280;13450;49.374;8.584;2023-12-14T04:03:18;99833.59;;;6.44;100.00
25560;BME280;13450;49.374;8.584;2023-12-14T04:05:43;99835.44;;;6.43;100.00
25560;BME280;13450;49.374;8.584;2023-12-14T04:08:09;99844.25;;;6.44;100.00
25560;BME280;13450;49.374;8.584;2023-12-14T04:10:35;99845.41;;;6.41;100.00
25560;BME280;13450;49.374;8.584;2023-12-14T04:13:00;99856.22;;;6.39;100.00
25560;BME280;13450;49.374;8.584;2023-12-14T04:15:25;99850.56;;;6.43;100.00
25560;BME280;13450;49.374;8.584;2023-12-14T04:17:50;99852.22;;;6.44;100.00
25560;BME280;13450;49.374;8.584;2023-12-14T04:20:16;99860.00;;;6.45;100.00
25560;BME280;13450;49.374;8.584;2023-12-14T04:22:43;99856.53;;;6.45;100.00
25560;BME280;13450;49.374;8.584;2023-12-14T04:25:08;99862.69;;;6.45;100.00
25560;BME280;13450;49.374;8.584;2023-12-14T04:27:36;99859.19;;;6.45;100.00
25560;BME280;13450;49.374;8.584;2023-12-14T04:30:01;99873.13;;;6.47;100.00
25560;BME280;13450;49.374;8.584;2023-12-14T04:32:29;99875.13;;;6.45;100.00
25560;BME280;13450;49.374;8.584;2023-12-14T04:34:54;99885.75;;;6.45;100.00
25560;BME280;13450;49.374;8.584;2023-12-14T04:37:20;99882.94;;;6.46;100.00
25560;BME280;13450;49.374;8.584;2023-12-14T04:39:45;99877.13;;;6.43;100.00
25560;BME280;13450;49.374;8.584;2023-12-14T04:42:13;99888.09;;;6.39;100.00
25560;BME280;13450;49.374;8.584;2023-12-14T04:44:38;99893.78;;;6.36;100.00
25560;BME280;13450;49.374;8.584;2023-12-14T04:47:04;99896.59;;;6.35;100.00
25560;BME280;13450;49.374;8.584;2023-12-14T04:49:29;99896.78;;;6.33;100.00
25560;BME280;13450;49.374;8.584;2023-12-14T04:51:54;99895.28;;;6.31;100.00
25560;BME280;13450;49.374;8.584;2023-12-14T04:54:20;99905.41;;;6.27;100.00
25560;BME280;13450;49.374;8.584;2023-12-14T04:56:46;99902.94;;;6.25;100.00
25560;BME280;13450;49.374;8.584;2023-12-14T04:59:11;99902.28;;;6.23;100.00
25560;BME280;13450;49.374;8.584;2023-12-14T05:01:36;99909.44;;;6.23;100.00
25560;BME280;13450;49.374;8.584;2023-12-14T05:04:02;99927.03;;;6.24;100.00
25560;BME280;13450;49.374;8.584;2023-12-14T05:06:28;99934.31;;;6.22;100.00
25560;BME280;13450;49.374;8.584;2023-12-14T05:08:53;99941.47;;;6.21;100.00
25560;BME280;13450;49.374;8.584;2023-12-14T05:11:20;99941.97;;;6.17;100.00
25560;BME280;13450;49.374;8.584;2023-12-14T05:13:48;99941.31;;;6.14;100.00
25560;BME280;13450;49.374;8.584;2023-12-14T05:16:14;99948.13;;;6.09;100.00
25560;BME280;13450;49.374;8.584;2023-12-14T05:18:39;99943.66;;;6.09;100.00
25560;BME280;13450;49.374;8.584;2023-12-14T05:21:05;99940.97;;;6.01;100.00
25560;BME280;13450;49.374;8.584;2023-12-14T05:23:33;99943.13;;;5.97;100.00
25560;BME280;13450;49.374;8.584;2023-12-14T05:25:58;99955.41;;;5.98;100.00
25560;BME280;13450;49.374;8.584;2023-12-14T05:28:23;99951.91;;;5.98;100.00
25560;BME280;13450;49.374;8.584;2023-12-14T05:30:49;99958.06;;;5.98;100.00
25560;BME280;13450;49.374;8.584;2023-12-14T05:33:14;99971.84;;;6.02;100.00
25560;BME280;13450;49.374;8.584;2023-12-14T05:35:42;99985.28;;;6.00;100.00
25560;BME280;13450;49.374;8.584;2023-12-14T05:38:07;99987.94;;;6.00;100.00
25560;BME280;13450;49.374;8.584;2023-12-14T05:40:32;99999.56;;;5.99;100.00
25560;BME280;13450;49.374;8.584;2023-12-14T05:42:57;100001.06;;;6.02;100.00
25560;BME280;13450;49.374;8.584;2023-12-14T05:45:23;100007.06;;;6.04;100.00
25560;BME280;13450;49.374;8.584;2023-12-14T05:47:48;100011.03;;;6.08;100.00
25560;BME280;13450;49.374;8.584;2023-12-14T05:50:13;100011.72;;;6.10;100.00
25560;BME280;13450;49.374;8.584;2023-12-14T05:52:39;100022.00;;;6.13;100.00
25560;BME280;13450;49.374;8.584;2023-12-14T05:55:08;100018.69;;;6.11;100.00
25560;BME280;13450;49.374;8.584;2023-12-14T05:57:34;100024.00;;;6.11;100.00
25560;BME280;13450;49.374;8.584;2023-12-14T06:00:03;100020.34;;;6.12;100.00
25560;BME280;13450;49.374;8.584;2023-12-14T06:02:29;100020.34;;;6.12;100.00
25560;BME280;13450;49.374;8.584;2023-12-14T06:04:54;100028.66;;;6.09;100.00
25560;BME280;13450;49.374;8.584;2023-12-14T06:07:21;100030.97;;;6.12;100.00
25560;BME280;13450;49.374;8.584;2023-12-14T06:09:47;100033.78;;;6.11;100.00
25560;BME280;13450;49.374;8.584;2023-12-14T06:12:12;100039.78;;;6.13;100.00
25560;BME280;13450;49.374;8.584;2023-12-14T06:14:38;100046.59;;;6.15;100.00
25560;BME280;13450;49.374;8.584;2023-12-14T06:17:03;100052.56;;;6.18;100.00
25560;BME280;13450;49.374;8.584;2023-12-14T06:19:29;100057.22;;;6.24;100.00
25560;BME280;13450;49.374;8.584;2023-12-14T06:21:54;100054.41;;;6.25;100.00
25560;BME280;13450;49.374;8.584;2023-12-14T06:24:19;100057.06;;;6.25;100.00
25560;BME280;13450;49.374;8.584;2023-12-14T06:26:46;100066.84;;;6.25;100.00
25560;BME280;13450;49.374;8.584;2023-12-14T06:29:12;100076.66;;;6.24;100.00
25560;BME280;13450;49.374;8.584;2023-12-14T06:31:38;100084.81;;;6.23;100.00
25560;BME280;13450;49.374;8.584;2023-12-14T06:34:04;100092.78;;;6.23;100.00
25560;BME280;13450;49.374;8.584;2023-12-14T06:36:30;100090.78;;;6.25;100.00
25560;BME280;13450;49.374;8.584;2023-12-14T06:38:56;100100.41;;;6.26;100.00
25560;BME280;13450;49.374;8.584;2023-12-14T06:41:24;100104.91;;;6.25;100.00
25560;BME280;13450;49.374;8.584;2023-12-14T06:43:50;100108.38;;;6.26;100.00
25560;BME280;13450;49.374;8.584;2023-12-14T06:46:16;100105.06;;;6.24;100.00
25560;BME280;13450;49.374;8.584;2023-12-14T06:48:41;100110.88;;;6.27;100.00
25560;BME280;13450;49.374;8.584;2023-12-14T06:51:07;100113.38;;;6.29;100.00
25560;BME280;13450;49.374;8.584;2023-12-14T06:53:34;100124.31;;;6.34;100.00
25560;BME280;13450;49.374;8.584;2023-12-14T06:55:59;100120.03;;;6.41;100.00
25560;BME280;13450;49.374;8.584;2023-12-14T06:58:24;100125.84;;;6.45;100.00
25560;BME280;13450;49.374;8.584;2023-12-14T07:00:50;100133.97;;;6.52;100.00
25560;BME280;13450;49.374;8.584;2023-12-14T07:03:16;100132.31;;;6.51;100.00
25560;BME280;13450;49.374;8.584;2023-12-14T07:05:41;100145.25;;;6.54;100.00
25560;BME280;13450;49.374;8.584;2023-12-14T07:08:06;100146.25;;;6.45;100.00
25560;BME280;13450;49.374;8.584;2023-12-14T07:10:32;100140.28;;;6.43;100.00
25560;BME280;13450;49.374;8.584;2023-12-14T07:12:57;100153.56;;;6.43;100.00
25560;BME280;13450;49.374;8.584;2023-12-14T07:15:22;100156.88;;;6.45;100.00
25560;BME280;13450;49.374;8.584;2023-12-14T07:17:48;100157.25;;;6.41;100.00
25560;BME280;13450;49.374;8.584;2023-12-14T07:20:16;100159.06;;;6.41;100.00
25560;BME280;13450;49.374;8.584;2023-12-14T07:22:41;100164.22;;;6.43;100.00
25560;BME280;13450;49.374;8.584;2023-12-14T07:25:09;100168.69;;;6.42;100.00
25560;BME280;13450;49.374;8.584;2023-12-14T07:27:36;100168.53;;;6.44;100.00
25560;BME280;13450;49.374;8.584;2023-12-14T07:30:04;100176.84;;;6.49;100.00
25560;BME280;13450;49.374;8.584;2023-12-14T07:32:34;100185.81;;;6.56;100.00
25560;BME280;13450;49.374;8.584;2023-12-14T07:35:02;100185.81;;;6.56;100.00
25560;BME280;13450;49.374;8.584;2023-12-14T07:37:27;100195.28;;;6.59;100.00
25560;BME280;13450;49.374;8.584;2023-12-14T07:39:52;100194.97;;;6.62;100.00
25560;BME280;13450;49.374;8.584;2023-12-14T07:42:18;100195.78;;;6.62;100.00
25560;BME280;13450;49.374;8.584;2023-12-14T07:44:48;100208.13;;;6.63;100.00
25560;BME280;13450;49.374;8.584;2023-12-14T07:47:14;100209.59;;;6.66;100.00
25560;BME280;13450;49.374;8.584;2023-12-14T07:49:42;100215.56;;;6.68;100.00
25560;BME280;13450;49.374;8.584;2023-12-14T07:52:07;100222.06;;;6.65;100.00
25560;BME280;13450;49.374;8.584;2023-12-14T07:54:32;100234.34;;;6.66;100.00
25560;BME280;13450;49.374;8.584;2023-12-14T07:56:57;100239.03;;;6.73;100.00
25560;BME280;13450;49.374;8.584;2023-12-14T07:59:23;100239.53;;;6.76;100.00
25560;BME280;13450;49.374;8.584;2023-12-14T08:01:48;100245.50;;;6.78;100.00
25560;BME280;13450;49.374;8.584;2023-12-14T08:04:14;100252.00;;;6.84;100.00
25560;BME280;13450;49.374;8.584;2023-12-14T08:06:39;100255.81;;;6.90;100.00
25560;BME280;13450;49.374;8.584;2023-12-14T08:09:05;100256.31;;;6.93;100.00
25560;BME280;13450;49.374;8.584;2023-12-14T08:11:31;100260.63;;;6.94;100.00
25560;BME280;13450;49.374;8.584;2023-12-14T08:13:57;100269.63;;;6.93;100.00
25560;BME280;13450;49.374;8.584;2023-12-14T08:16:22;100272.81;;;6.97;100.00
25560;BME280;13450;49.374;8.584;2023-12-14T08:18:50;100279.44;;;7.01;100.00
25560;BME280;13450;49.374;8.584;2023-12-14T08:21:16;100278.63;;;7.01;100.00
25560;BME280;13450;49.374;8.584;2023-12-14T08:23:42;100292.56;;;7.03;100.00
25560;BME280;13450;49.374;8.584;2023-12-14T08:26:07;100291.25;;;6.99;100.00
25560;BME280;13450;49.374;8.584;2023-12-14T08:28:35;100302.56;;;7.01;100.00
25560;BME280;13450;49.374;8.584;2023-12-14T08:31:00;100312.19;;;7.02;100.00
25560;BME280;13450;49.374;8.584;2023-12-14T08:33:31;100313.53;;;7.06;100.00
25560;BME280;13450;49.374;8.584;2023-12-14T08:35:57;100313.22;;;7.09;100.00
25560;BME280;13450;49.374;8.584;2023-12-14T08:38:22;100314.56;;;7.13;100.00
25560;BME280;13450;49.374;8.584;2023-12-14T08:40:48;100322.19;;;7.08;100.00
25560;BME280;13450;49.374;8.584;2023-12-14T08:43:13;100331.69;;;7.11;100.00
25560;BME280;13450;49.374;8.584;2023-12-14T08:45:39;100335.84;;;7.13;100.00
25560;BME280;13450;49.374;8.584;2023-12-14T08:48:06;100343.63;;;7.15;100.00
25560;BME280;13450;49.374;8.584;2023-12-14T08:50:31;100352.78;;;7.12;100.00
25560;BME280;13450;49.374;8.584;2023-12-14T08:52:57;100344.47;;;7.15;100.00
25560;BME280;13450;49.374;8.584;2023-12-14T08:55:29;100349.81;;;7.15;100.00
25560;BME280;13450;49.374;8.584;2023-12-14T08:57:54;100352.47;;;7.15;100.00
25560;BME280;13450;49.374;8.584;2023-12-14T09:00:21;100358.81;;;7.23;100.00
25560;BME280;13450;49.374;8.584;2023-12-14T09:02:46;100361.97;;;7.26;100.00
25560;BME280;13450;49.374;8.584;2023-12-14T09:05:12;100370.28;;;7.31;100.00
25560;BME280;13450;49.374;8.584;2023-12-14T09:07:38;100369.97;;;7.35;100.00
25560;BME280;13450;49.374;8.584;2023-12-14T09:10:04;100375.78;;;7.38;100.00
25560;BME280;13450;49.374;8.584;2023-12-14T09:12:29;100387.09;;;7.40;100.00
25560;BME280;13450;49.374;8.584;2023-12-14T09:14:58;100388.75;;;7.41;100.00
25560;BME280;13450;49.374;8.584;2023-12-14T09:17:26;100392.75;;;7.45;100.00
25560;BME280;13450;49.374;8.584;2023-12-14T09:19:57;100404.75;;;7.50;100.00
25560;BME280;13450;49.374;8.584;2023-12-14T09:22:23;100405.25;;;7.53;100.00
25560;BME280;13450;49.374;8.584;2023-12-14T09:24:50;100410.53;;;7.37;100.00
25560;BME280;13450;49.374;8.584;2023-12-14T09:27:15;100415.06;;;7.36;100.00
25560;BME280;13450;49.374;8.584;2023-12-14T09:29:41;100415.06;;;7.36;100.00
25560;BME280;13450;49.374;8.584;2023-12-14T09:32:08;100416.72;;;7.37;100.00
25560;BME280;13450;49.374;8.584;2023-12-14T09:34:33;100429.88;;;7.39;100.00
25560;BME280;13450;49.374;8.584;2023-12-14T09:36:58;100425.72;;;7.44;100.00
25560;BME280;13450;49.374;8.584;2023-12-14T09:39:24;100428.19;;;7.46;100.00
25560;BME280;13450;49.374;8.584;2023-12-14T09:41:50;100438.69;;;7.48;100.00
25560;BME280;13450;49.374;8.584;2023-12-14T09:44:16;100440.88;;;7.52;100.00
25560;BME280;13450;49.374;8.584;2023-12-14T09:46:47;100445.03;;;7.55;100.00
25560;BME280;13450;49.374;8.584;2023-12-14T09:49:15;100455.38;;;7.58;100.00
25560;BME280;13450;49.374;8.584;2023-12-14T09:51:41;100450.69;;;7.60;100.00
25560;BME280;13450;49.374;8.584;2023-12-14T09:54:09;100465.34;;;7.64;100.00
25560;BME280;13450;49.374;8.584;2023-12-14T09:56:34;100465.03;;;7.67;100.00
25560;BME280;13450;49.374;8.584;2023-12-14T09:59:01;100464.66;;;7.70;100.00
25560;BME280;13450;49.374;8.584;2023-12-14T10:01:27;100464.03;;;7.77;100.00
25560;BME280;13450;49.374;8.584;2023-12-14T10:04:18;100481.34;;;7.81;100.00
25560;BME280;13450;49.374;8.584;2023-12-14T10:06:47;100478.00;;;7.79;100.00
25560;BME280;13450;49.374;8.584;2023-12-14T10:09:15;100481.34;;;7.81;100.00
25560;BME280;13450;49.374;8.584;2023-12-14T10:11:44;100485.00;;;7.88;100.00
25560;BME280;13450;49.374;8.584;2023-12-14T10:14:23;100494.31;;;7.92;100.00
25560;BME280;13450;49.374;8.584;2023-12-14T10:16:50;100479.03;;;7.94;100.00
25560;BME280;13450;49.374;8.584;2023-12-14T10:19:19;100484.84;;;8.06;100.00
25560;BME280;13450;49.374;8.584;2023-12-14T10:21:49;100493.66;;;8.07;100.00
25560;BME280;13450;49.374;8.584;2023-12-14T10:24:15;100483.66;;;8.09;100.00
25560;BME280;13450;49.374;8.584;2023-12-14T10:26:43;100484.16;;;8.13;100.00
25560;BME280;13450;49.374;8.584;2023-12-14T10:29:09;100487.31;;;8.16;100.00
25560;BME280;13450;49.374;8.584;2023-12-14T10:31:38;100495.31;;;8.16;100.00
25560;BME280;13450;49.374;8.584;2023-12-14T10:34:04;100497.00;;;8.17;100.00
25560;BME280;13450;49.374;8.584;2023-12-14T10:36:30;100501.47;;;8.17;100.00
25560;BME280;13450;49.374;8.584;2023-12-14T10:39:00;100507.31;;;8.20;100.00
25560;BME280;13450;49.374;8.584;2023-12-14T10:41:26;100505.31;;;8.22;100.00
25560;BME280;13450;49.374;8.584;2023-12-14T10:43:55;100506.81;;;8.25;100.00
25560;BME280;13450;49.374;8.584;2023-12-14T10:46:21;100514.50;;;8.28;100.00
25560;BME280;13450;49.374;8.584;2023-12-14T10:48:51;100513.97;;;8.24;100.00
25560;BME280;13450;49.374;8.584;2023-12-14T10:51:20;100513.97;;;8.24;100.00
25560;BME280;13450;49.374;8.584;2023-12-14T10:53:47;100512.78;;;8.27;100.00
25560;BME280;13450;49.374;8.584;2023-12-14T10:56:14;100518.13;;;8.27;100.00
25560;BME280;13450;49.374;8.584;2023-12-14T10:58:53;100525.00;;;8.21;100.00
25560;BME280;13450;49.374;8.584;2023-12-14T11:01:20;100525.31;;;8.18;100.00
25560;BME280;13450;49.374;8.584;2023-12-14T11:03:47;100527.28;;;8.16;100.00
25560;BME280;13450;49.374;8.584;2023-12-14T11:06:35;100533.97;;;8.20;100.00
25560;BME280;13450;49.374;8.584;2023-12-14T11:09:05;100534.28;;;8.25;100.00
25560;BME280;13450;49.374;8.584;2023-12-14T11:11:41;100528.63;;;8.45;100.00
25560;BME280;13450;49.374;8.584;2023-12-14T11:14:11;100534.44;;;8.74;100.00
25560;BME280;13450;49.374;8.584;2023-12-14T11:16:38;100533.00;;;9.03;100.00
25560;BME280;13450;49.374;8.584;2023-12-14T11:24:34;100544.03;;;9.40;100.00
25560;BME280;13450;49.374;8.584;2023-12-14T11:27:06;100552.31;;;9.53;100.00
25560;BME280;13450;49.374;8.584;2023-12-14T11:29:38;100553.97;;;9.54;100.00
25560;BME280;13450;49.374;8.584;2023-12-14T11:32:05;100560.75;;;9.34;100.00
25560;BME280;13450;49.374;8.584;2023-12-14T11:34:31;100558.31;;;9.24;100.00
25560;BME280;13450;49.374;8.584;2023-12-14T11:36:56;100563.19;;;9.12;100.00
25560;BME280;13450;49.374;8.584;2023-12-14T11:39:22;100570.38;;;9.03;100.00
25560;BME280;13450;49.374;8.584;2023-12-14T11:42:04;100574.63;;;8.81;100.00
25560;BME280;13450;49.374;8.584;2023-12-14T11:44:29;100581.13;;;8.70;100.00
25560;BME280;13450;49.374;8.584;2023-12-14T11:46:56;100583.81;;;8.61;100.00
25560;BME280;13450;49.374;8.584;2023-12-14T11:49:26;100588.31;;;8.61;100.00
25560;BME280;13450;49.374;8.584;2023-12-14T11:51:55;100594.16;;;8.56;100.00
25560;BME280;13450;49.374;8.584;2023-12-14T11:54:22;100597.66;;;8.57;100.00
25560;BME280;13450;49.374;8.584;2023-12-14T11:56:49;100594.66;;;8.60;100.00
25560;BME280;13450;49.374;8.584;2023-12-14T11:59:15;100600.66;;;8.62;100.00
25560;BME280;13450;49.374;8.584;2023-12-14T12:02:02;100592.97;;;8.75;100.00
25560;BME280;13450;49.374;8.584;2023-12-14T12:04:29;100595.28;;;8.87;100.00
25560;BME280;13450;49.374;8.584;2023-12-14T12:07:02;100601.09;;;8.99;100.00
25560;BME280;13450;49.374;8.584;2023-12-14T12:09:34;100596.59;;;8.99;100.00
25560;BME280;13450;49.374;8.584;2023-12-14T12:12:01;100601.44;;;8.96;100.00
25560;BME280;13450;49.374;8.584;2023-12-14T12:14:27;100599.91;;;9.01;100.00
25560;BME280;13450;49.374;8.584;2023-12-14T12:16:55;100609.94;;;8.99;100.00
25560;BME280;13450;49.374;8.584;2023-12-14T12:19:20;100602.25;;;8.96;100.00
25560;BME280;13450;49.374;8.584;2023-12-14T12:21:45;100610.28;;;8.88;100.00
25560;BME280;13450;49.374;8.584;2023-12-14T12:24:11;100609.47;;;8.79;100.00
25560;BME280;13450;49.374;8.584;2023-12-14T12:26:36;100616.00;;;8.68;100.00
25560;BME280;13450;49.374;8.584;2023-12-14T12:29:01;100604.66;;;8.58;100.00
25560;BME280;13450;49.374;8.584;2023-12-14T12:31:29;100609.97;;;8.49;100.00
25560;BME280;13450;49.374;8.584;2023-12-14T12:33:54;100606.63;;;8.47;100.00
25560;BME280;13450;49.374;8.584;2023-12-14T12:36:22;100606.78;;;8.46;100.00
25560;BME280;13450;49.374;8.584;2023-12-14T12:38:47;100611.13;;;8.47;100.00
25560;BME280;13450;49.374;8.584;2023-12-14T12:41:12;100609.97;;;8.41;100.00
25560;BME280;13450;49.374;8.584;2023-12-14T12:43:38;100617.81;;;8.43;100.00
25560;BME280;13450;49.374;8.584;2023-12-14T12:46:03;100617.31;;;8.56;100.00
25560;BME280;13450;49.374;8.584;2023-12-14T12:48:29;100617.00;;;8.59;100.00
25560;BME280;13450;49.374;8.584;2023-12-14T12:50:55;100612.47;;;8.59;100.00
25560;BME280;13450;49.374;8.584;2023-12-14T12:53:20;100616.66;;;8.62;100.00
25560;BME280;13450;49.374;8.584;2023-12-14T12:55:48;100625.16;;;8.57;100.00
25560;BME280;13450;49.374;8.584;2023-12-14T12:58:13;100624.81;;;8.52;100.00